createdAt,value
2023-03-20T00:02:09.657Z,16.23
2023-03-20T00:04:39.074Z,18.17
2023-03-20T00:07:10.677Z,15.65
2023-03-20T00:09:39.346Z,16.10
2023-03-20T00:12:11.157Z,18.33
2023-03-20T00:14:39.710Z,16.25
2023-03-20T00:17:11.772Z,16.67
2023-03-20T00:19:40.330Z,16.70
2023-03-20T00:22:10.251Z,19.50
2023-03-20T00:24:38.884Z,18.10
2023-03-20T00:27:10.988Z,21.58
2023-03-20T00:29:39.470Z,15.35
2023-03-20T00:32:13.227Z,19.17
2023-03-20T00:34:42.079Z,14.50
2023-03-20T00:37:11.822Z,15.93
2023-03-20T00:39:40.461Z,16.42
2023-03-20T00:42:15.000Z,16.58
2023-03-20T00:44:49.809Z,17.85
2023-03-20T00:47:20.081Z,19.10
2023-03-20T00:49:50.809Z,14.13
2023-03-20T00:52:19.602Z,17.90
2023-03-20T00:54:48.227Z,16.67
2023-03-20T00:57:21.682Z,18.02
2023-03-20T00:59:53.284Z,15.93
2023-03-20T01:02:23.215Z,16.27
2023-03-20T01:04:52.495Z,20.58
2023-03-20T01:07:20.806Z,19.80
2023-03-20T01:09:49.350Z,18.17
2023-03-20T01:12:18.885Z,16.05
2023-03-20T01:14:47.844Z,17.42
2023-03-20T01:17:19.575Z,15.65
2023-03-20T01:19:48.657Z,17.83
2023-03-20T01:22:18.048Z,15.65
2023-03-20T01:24:47.428Z,16.52
2023-03-20T01:27:17.218Z,17.95
2023-03-20T01:29:47.758Z,17.38
2023-03-20T01:32:17.983Z,18.05
2023-03-20T01:34:47.736Z,17.27
2023-03-20T01:37:20.299Z,13.68
2023-03-20T01:39:48.948Z,16.38
2023-03-20T01:42:18.308Z,15.65
2023-03-20T01:44:48.752Z,18.42
2023-03-20T01:47:19.238Z,16.95
2023-03-20T01:50:22.602Z,15.35
2023-03-20T01:52:52.960Z,16.55
2023-03-20T01:55:22.182Z,13.90
2023-03-20T01:57:52.282Z,15.82
2023-03-20T02:00:24.049Z,17.75
2023-03-20T02:05:22.380Z,18.33
2023-03-20T02:07:55.812Z,16.73
2023-03-20T02:10:24.440Z,13.35
2023-03-20T02:12:53.572Z,16.40
2023-03-20T02:15:23.400Z,14.20
2023-03-20T02:17:51.598Z,14.57
2023-03-20T02:20:31.835Z,16.77
2023-03-20T02:23:53.510Z,19.65
2023-03-20T02:30:01.371Z,18.77
2023-03-20T02:33:26.454Z,17.88
2023-03-20T02:36:43.414Z,17.92
2023-03-20T02:39:36.842Z,18.20
2023-03-20T02:42:11.375Z,19.67
2023-03-20T02:44:45.186Z,18.33
2023-03-20T02:47:16.567Z,18.00
2023-03-20T02:49:54.840Z,21.52
2023-03-20T02:52:28.013Z,27.90
2023-03-20T02:55:07.214Z,27.33
2023-03-20T02:57:43.070Z,27.88
2023-03-20T03:00:14.891Z,28.75
2023-03-20T03:05:16.766Z,27.90
2023-03-20T03:07:47.092Z,21.95
2023-03-20T03:10:19.987Z,23.67
2023-03-20T03:12:49.314Z,19.88
2023-03-20T03:15:22.271Z,15.40
2023-03-20T03:17:50.755Z,17.35
2023-03-20T03:20:23.226Z,17.25
2023-03-20T03:22:51.928Z,17.27
2023-03-20T03:25:25.609Z,17.02
2023-03-20T03:28:02.404Z,16.90
2023-03-20T03:30:33.052Z,16.60
2023-03-20T03:33:11.178Z,19.38
2023-03-20T03:35:40.346Z,17.20
2023-03-20T03:38:24.320Z,18.10
2023-03-20T03:41:02.367Z,16.45
2023-03-20T03:43:33.390Z,18.08
2023-03-20T03:46:06.156Z,18.02
2023-03-20T03:48:37.216Z,16.98
2023-03-20T03:51:09.188Z,18.63
2023-03-20T03:53:41.367Z,19.08
2023-03-20T03:56:13.356Z,18.63
2023-03-20T03:58:43.756Z,17.33
2023-03-20T04:01:14.081Z,17.67
2023-03-20T04:03:44.245Z,16.13
2023-03-20T04:06:13.709Z,17.27
2023-03-20T04:08:42.337Z,19.05
2023-03-20T04:11:16.045Z,19.73
2023-03-20T04:13:44.293Z,22.30
2023-03-20T04:16:15.276Z,20.67
2023-03-20T04:18:43.751Z,20.85
2023-03-20T04:21:12.662Z,21.02
2023-03-20T04:23:40.897Z,19.58
2023-03-20T04:26:09.551Z,20.45
2023-03-20T04:28:39.298Z,20.30
2023-03-20T04:31:08.469Z,23.05
2023-03-20T04:33:36.717Z,22.42
2023-03-20T04:36:06.460Z,20.30
2023-03-20T04:38:34.896Z,21.35
2023-03-20T04:41:03.678Z,22.38
2023-03-20T04:43:31.998Z,23.83
2023-03-20T04:46:01.942Z,23.23
2023-03-20T04:48:30.448Z,21.73
2023-03-20T04:50:58.968Z,23.08
2023-03-20T04:53:27.385Z,23.85
2023-03-20T04:55:55.831Z,23.60
2023-03-20T04:58:24.116Z,21.52
2023-03-20T05:00:52.759Z,26.90
2023-03-20T05:03:24.033Z,22.15
2023-03-20T05:05:52.772Z,21.88
2023-03-20T05:08:21.231Z,23.42
2023-03-20T05:10:49.733Z,22.25
2023-03-20T05:13:17.933Z,24.52
2023-03-20T05:15:46.562Z,24.70
2023-03-20T05:18:14.792Z,24.02
2023-03-20T05:20:44.736Z,28.88
2023-03-20T05:23:13.024Z,28.48
2023-03-20T05:25:41.726Z,27.15
2023-03-20T05:28:09.989Z,27.60
2023-03-20T05:30:39.941Z,26.23
2023-03-20T05:33:08.466Z,27.80
2023-03-20T05:35:37.349Z,28.10
2023-03-20T05:38:07.245Z,25.23
2023-03-20T05:40:35.961Z,27.95
2023-03-20T05:43:05.798Z,25.05
2023-03-20T05:45:34.812Z,26.73
2023-03-20T05:48:03.458Z,24.15
2023-03-20T05:50:32.137Z,26.48
2023-03-20T05:53:01.014Z,26.30
2023-03-20T05:55:31.170Z,28.80
2023-03-20T05:57:59.396Z,29.17
2023-03-20T06:00:28.209Z,27.88
2023-03-20T06:02:57.244Z,30.60
2023-03-20T06:05:26.187Z,28.23
2023-03-20T06:07:54.578Z,28.20
2023-03-20T06:10:23.132Z,30.42
2023-03-20T06:12:52.859Z,27.35
2023-03-20T06:15:21.923Z,23.65
2023-03-20T06:17:50.516Z,25.02
2023-03-20T06:20:19.311Z,23.73
2023-03-20T06:22:47.853Z,25.45
2023-03-20T06:25:16.712Z,26.35
2023-03-20T06:27:45.226Z,24.95
2023-03-20T06:30:16.276Z,25.27
2023-03-20T06:32:44.692Z,25.38
2023-03-20T06:35:13.744Z,32.03
2023-03-20T06:37:42.312Z,23.90
2023-03-20T06:40:11.928Z,25.30
2023-03-20T06:42:40.143Z,31.13
2023-03-20T06:45:09.493Z,31.08
2023-03-20T06:47:39.091Z,27.02
2023-03-20T06:50:08.604Z,31.52
2023-03-20T06:52:36.878Z,31.10
2023-03-20T06:55:06.076Z,29.95
2023-03-20T06:57:34.670Z,29.08
2023-03-20T07:00:04.536Z,30.63
2023-03-20T07:02:33.514Z,30.20
2023-03-20T07:05:03.667Z,29.60
2023-03-20T07:07:32.706Z,30.55
2023-03-20T07:10:01.715Z,28.42
2023-03-20T07:12:29.982Z,28.45
2023-03-20T07:14:58.679Z,31.25
2023-03-20T07:17:27.176Z,34.60
2023-03-20T07:19:55.945Z,29.27
2023-03-20T07:22:27.307Z,34.53
2023-03-20T07:24:55.901Z,29.70
2023-03-20T07:27:24.239Z,27.60
2023-03-20T07:29:52.767Z,32.88
2023-03-20T07:32:21.185Z,35.70
2023-03-20T07:34:50.417Z,29.00
2023-03-20T07:37:18.851Z,28.02
2023-03-20T07:39:48.877Z,34.22
2023-03-20T07:42:17.819Z,30.50
2023-03-20T07:44:46.384Z,29.23
2023-03-20T07:47:14.744Z,31.05
2023-03-20T07:49:43.378Z,29.25
2023-03-20T07:52:11.798Z,28.70
2023-03-20T07:54:40.681Z,27.17
2023-03-20T07:57:10.334Z,26.90
2023-03-20T07:59:39.010Z,29.63
2023-03-20T08:02:07.364Z,29.02
2023-03-20T08:04:36.654Z,29.92
2023-03-20T08:07:05.073Z,30.15
2023-03-20T08:09:33.939Z,32.53
2023-03-20T08:12:02.327Z,33.60
2023-03-20T08:14:32.682Z,34.25
2023-03-20T08:17:13.829Z,34.60
2023-03-20T08:19:43.414Z,35.85
2023-03-20T08:22:11.682Z,33.40
2023-03-20T08:24:40.261Z,34.47
2023-03-20T08:27:08.612Z,35.72
2023-03-20T08:29:38.781Z,33.03
2023-03-20T08:32:07.652Z,44.15
2023-03-20T08:34:36.276Z,31.35
2023-03-20T08:37:04.922Z,30.17
2023-03-20T08:39:34.491Z,30.60
2023-03-20T08:42:03.165Z,31.80
2023-03-20T08:44:31.750Z,30.50
2023-03-20T08:47:01.401Z,36.85
2023-03-20T08:49:29.959Z,27.17
2023-03-20T08:51:58.305Z,31.80
2023-03-20T08:54:27.094Z,36.15
2023-03-20T08:56:55.358Z,31.95
2023-03-20T08:59:24.022Z,31.05
2023-03-20T09:01:52.269Z,28.67
2023-03-20T09:04:22.390Z,33.45
2023-03-20T09:06:51.799Z,28.25
2023-03-20T09:09:22.048Z,29.83
2023-03-20T09:11:50.694Z,33.78
2023-03-20T09:14:19.429Z,30.48
2023-03-20T09:16:47.830Z,33.65
2023-03-20T09:19:19.979Z,36.80
2023-03-20T09:21:49.710Z,31.67
2023-03-20T09:24:18.418Z,31.33
2023-03-20T09:26:46.750Z,33.30
2023-03-20T09:29:15.604Z,32.08
2023-03-20T09:31:43.938Z,28.40
2023-03-20T09:34:12.623Z,34.75
2023-03-20T09:36:40.919Z,28.10
2023-03-20T09:39:11.226Z,32.53
2023-03-20T09:41:53.225Z,30.90
2023-03-20T09:44:38.087Z,33.75
2023-03-20T09:47:19.675Z,39.70
2023-03-20T09:49:58.700Z,38.60
2023-03-20T09:52:31.612Z,32.25
2023-03-20T09:55:04.017Z,33.40
2023-03-20T09:57:37.233Z,34.45
2023-03-20T10:00:10.473Z,32.63
2023-03-20T10:02:43.446Z,31.88
2023-03-20T10:05:19.376Z,35.65
2023-03-20T10:07:47.924Z,30.38
2023-03-20T10:10:20.725Z,37.17
2023-03-20T10:12:56.300Z,33.05
2023-03-20T10:15:34.844Z,32.72
2023-03-20T10:18:08.435Z,43.03
2023-03-20T10:20:39.552Z,42.70
2023-03-20T10:23:09.368Z,35.72
2023-03-20T10:25:44.393Z,39.63
2023-03-20T10:28:14.210Z,40.85
2023-03-20T10:30:52.411Z,36.70
2023-03-20T10:33:28.396Z,44.30
2023-03-20T10:36:06.438Z,33.97
2023-03-20T10:38:39.778Z,38.15
2023-03-20T10:41:13.864Z,38.42
2023-03-20T10:43:43.516Z,37.58
2023-03-20T10:46:14.688Z,44.60
2023-03-20T10:48:46.096Z,39.13
2023-03-20T10:51:16.665Z,33.60
2023-03-20T10:53:48.509Z,26.70
2023-03-20T10:56:22.763Z,29.15
2023-03-20T10:58:55.938Z,19.73
2023-03-20T11:01:24.534Z,20.45
2023-03-20T11:03:52.918Z,17.45
2023-03-20T11:06:24.116Z,16.08
2023-03-20T11:08:54.388Z,18.17
2023-03-20T11:11:25.990Z,14.90
2023-03-20T11:13:54.483Z,19.50
2023-03-20T11:16:25.577Z,38.88
2023-03-20T11:18:55.161Z,22.35
2023-03-20T11:21:26.302Z,22.95
2023-03-20T11:26:36.161Z,19.83
2023-03-20T11:29:07.507Z,17.42
2023-03-20T11:31:37.590Z,17.58
2023-03-20T11:34:21.536Z,18.92
2023-03-20T11:37:09.829Z,18.02
2023-03-20T11:39:41.388Z,13.02
2023-03-20T11:42:24.770Z,15.95
2023-03-20T11:44:59.355Z,15.93
2023-03-20T11:47:29.385Z,13.82
2023-03-20T11:50:00.091Z,22.98
2023-03-20T11:52:31.189Z,15.55
2023-03-20T11:55:00.927Z,17.77
2023-03-20T11:57:36.615Z,18.10
2023-03-20T12:00:16.844Z,16.75
2023-03-20T12:02:46.333Z,18.00
2023-03-20T12:05:30.092Z,19.27
2023-03-20T12:07:59.619Z,17.75
2023-03-20T12:10:32.108Z,24.48
2023-03-20T12:13:05.300Z,26.13
2023-03-20T12:15:35.995Z,39.95
2023-03-20T12:18:08.197Z,35.38
2023-03-20T12:20:39.692Z,17.45
2023-03-20T12:23:14.312Z,16.20
2023-03-20T12:25:49.447Z,30.50
2023-03-20T12:28:25.626Z,47.38
2023-03-20T12:31:05.966Z,27.27
2023-03-20T12:33:44.576Z,21.05
2023-03-20T12:36:16.640Z,18.45
2023-03-20T12:38:46.093Z,21.00
2023-03-20T12:41:17.064Z,28.27
2023-03-20T12:44:06.961Z,26.05
2023-03-20T12:46:42.276Z,30.08
2023-03-20T12:49:18.103Z,23.63
2023-03-20T12:51:53.761Z,24.58
2023-03-20T12:54:31.443Z,26.00
2023-03-20T12:57:07.369Z,24.92
2023-03-20T12:59:47.628Z,32.65
2023-03-20T13:02:28.333Z,23.08
2023-03-20T13:05:05.602Z,26.73
2023-03-20T13:07:46.632Z,22.48
2023-03-20T13:10:21.890Z,24.17
2023-03-20T13:13:05.693Z,24.15
2023-03-20T13:15:48.328Z,22.42
2023-03-20T13:18:21.155Z,20.08
2023-03-20T13:20:52.180Z,19.65
2023-03-20T13:23:27.584Z,20.10
2023-03-20T13:26:09.079Z,24.15
2023-03-20T13:28:42.608Z,23.23
2023-03-20T13:31:22.445Z,17.40
2023-03-20T13:33:55.046Z,16.35
2023-03-20T13:36:35.777Z,22.27
2023-03-20T13:39:07.792Z,23.23
2023-03-20T13:41:37.822Z,18.25
2023-03-20T13:44:07.520Z,20.15
2023-03-20T13:46:40.258Z,24.38
2023-03-20T13:49:15.433Z,26.15
2023-03-20T13:51:49.327Z,22.05
2023-03-20T13:54:40.162Z,22.70
2023-03-20T13:57:16.081Z,23.02
2023-03-20T14:00:00.708Z,21.33
2023-03-20T14:02:36.806Z,18.10
2023-03-20T14:05:07.750Z,20.55
2023-03-20T14:07:38.888Z,19.63
2023-03-20T14:10:35.334Z,18.67
2023-03-20T14:13:08.174Z,20.23
2023-03-20T14:15:44.326Z,21.23
2023-03-20T14:18:19.310Z,21.15
2023-03-20T14:20:56.467Z,20.90
2023-03-20T14:23:45.400Z,17.75
2023-03-20T14:26:25.834Z,18.65
2023-03-20T14:29:01.348Z,19.80
2023-03-20T14:31:42.530Z,19.13
2023-03-20T14:34:32.321Z,26.98
2023-03-20T14:37:06.115Z,35.47
2023-03-20T14:39:48.186Z,24.67
2023-03-20T14:42:37.760Z,24.27
2023-03-20T14:45:32.071Z,26.25
2023-03-20T14:48:13.129Z,23.52
2023-03-20T14:50:54.908Z,32.92
2023-03-20T14:53:27.425Z,28.88
2023-03-20T14:56:08.426Z,28.77
2023-03-20T14:58:59.428Z,27.77
2023-03-20T15:01:49.435Z,34.03
2023-03-20T15:04:37.412Z,32.67
2023-03-20T15:07:16.212Z,28.70
2023-03-20T15:09:47.458Z,36.88
2023-03-20T15:12:19.532Z,43.35
2023-03-20T15:14:57.203Z,35.58
2023-03-20T15:17:28.477Z,28.20
2023-03-20T15:20:06.674Z,34.45
2023-03-20T15:22:40.296Z,84.25
2023-03-20T15:25:22.217Z,47.40
2023-03-20T15:27:54.271Z,67.47
2023-03-20T15:30:26.190Z,55.60
2023-03-20T15:32:57.338Z,42.75
2023-03-20T15:35:28.120Z,39.78
2023-03-20T15:38:03.513Z,29.33
2023-03-20T15:40:47.639Z,28.35
2023-03-20T15:43:23.434Z,30.48
2023-03-20T15:46:17.381Z,26.13
2023-03-20T15:48:51.490Z,24.65
2023-03-20T15:51:28.916Z,33.60
2023-03-20T15:54:08.131Z,53.88
2023-03-20T15:56:43.060Z,47.42
2023-03-20T15:59:15.787Z,36.08
2023-03-20T16:01:54.215Z,34.97
2023-03-20T16:04:33.840Z,32.55
2023-03-20T16:07:05.697Z,30.58
2023-03-20T16:09:44.681Z,32.08
2023-03-20T16:12:17.658Z,70.00
2023-03-20T16:14:53.618Z,57.13
2023-03-20T16:17:24.982Z,40.28
2023-03-20T16:19:55.083Z,29.58
2023-03-20T16:22:27.060Z,28.08
2023-03-20T16:24:59.047Z,29.00
2023-03-20T16:27:30.147Z,32.38
2023-03-20T16:32:35.855Z,30.00
2023-03-20T16:35:07.646Z,33.67
2023-03-20T22:46:41.873Z,27.48
2023-03-20T22:48:59.008Z,24.65
2023-03-20T22:51:34.174Z,27.63
2023-03-20T22:54:04.506Z,34.90
2023-03-20T22:56:32.989Z,39.00
2023-03-20T22:59:01.610Z,33.38
2023-03-20T23:01:31.405Z,28.48
2023-03-20T23:03:59.966Z,28.23
2023-03-20T23:06:28.655Z,27.38
2023-03-20T23:09:03.128Z,25.55
2023-03-20T23:11:34.108Z,26.48
2023-03-20T23:14:08.696Z,21.98
2023-03-20T23:16:41.789Z,21.27
2023-03-20T23:19:10.532Z,25.10
2023-03-20T23:21:41.560Z,21.23
2023-03-20T23:24:10.432Z,25.95
2023-03-20T23:26:38.827Z,30.42
2023-03-20T23:29:07.497Z,25.48
2023-03-20T23:31:35.882Z,25.65
2023-03-20T23:34:05.944Z,22.90
2023-03-20T23:36:37.243Z,25.25
2023-03-20T23:39:07.967Z,24.27
2023-03-20T23:42:04.716Z,25.33
2023-03-20T23:44:25.220Z,25.45
2023-03-20T23:46:54.828Z,27.65
2023-03-20T23:49:24.876Z,27.33
2023-03-20T23:51:53.327Z,29.80
2023-03-20T23:54:21.971Z,33.20
2023-03-20T23:56:50.765Z,28.83
2023-03-20T23:59:21.945Z,31.00
